createdAt,value
2023-04-25T00:06:42.118Z,79.40
2023-04-25T00:11:34.530Z,79.45
2023-04-25T00:21:56.750Z,82.16
2023-04-25T00:26:48.598Z,82.97
2023-04-25T00:31:40.387Z,84.50
2023-04-25T00:36:32.306Z,85.85
2023-04-25T00:41:26.096Z,85.54
2023-04-25T00:46:17.793Z,84.66
2023-04-25T00:51:16.766Z,83.42
2023-04-25T00:56:08.879Z,82.51
2023-04-25T01:01:01.869Z,82.71
2023-04-25T01:05:54.057Z,80.50
2023-04-25T01:10:45.754Z,80.52
2023-04-25T01:15:37.472Z,81.17
2023-04-25T01:20:30.318Z,80.61
2023-04-25T01:25:23.583Z,81.00
2023-04-25T01:30:16.081Z,82.01
2023-04-25T01:35:11.819Z,85.45
2023-04-25T01:40:06.319Z,87.28
2023-04-25T01:44:58.228Z,89.30
2023-04-25T01:49:49.910Z,91.48
2023-04-25T01:54:44.988Z,94.96
2023-04-25T01:59:37.869Z,97.06
2023-04-25T02:04:29.629Z,97.90
2023-04-25T02:09:21.475Z,98.75
2023-04-25T02:14:13.295Z,98.82
2023-04-25T02:19:05.094Z,100.00
2023-04-25T02:23:57.340Z,100.00
2023-04-25T02:28:49.351Z,100.00
2023-04-25T02:33:41.017Z,100.00
2023-04-25T02:38:32.707Z,100.00
2023-04-25T02:43:24.434Z,100.00
2023-04-25T02:48:16.251Z,100.00
2023-04-25T02:58:14.465Z,100.00
2023-04-25T03:03:06.235Z,100.00
2023-04-25T03:07:58.016Z,100.00
2023-04-25T03:12:49.819Z,100.00
2023-04-25T03:17:41.591Z,100.00
2023-04-25T03:22:33.460Z,100.00
2023-04-25T03:27:25.131Z,100.00
2023-04-25T03:32:16.899Z,100.00
2023-04-25T03:37:08.665Z,100.00
2023-04-25T03:42:00.704Z,100.00
2023-04-25T03:46:52.420Z,100.00
2023-04-25T03:51:44.078Z,100.00
2023-04-25T03:56:35.913Z,100.00
2023-04-25T04:01:27.864Z,100.00
2023-04-25T04:06:21.601Z,100.00
2023-04-25T04:11:14.220Z,100.00
2023-04-25T04:16:06.403Z,100.00
2023-04-25T04:21:00.715Z,100.00
2023-04-25T04:25:57.180Z,100.00
2023-04-25T04:30:51.958Z,100.00
2023-04-25T04:35:43.954Z,100.00
2023-04-25T04:40:35.736Z,100.00
2023-04-25T04:45:28.503Z,100.00
2023-04-25T04:50:20.884Z,100.00
2023-04-25T04:55:13.119Z,100.00
2023-04-25T05:00:11.372Z,97.76
2023-04-25T05:05:03.100Z,89.38
2023-04-25T05:09:54.792Z,86.17
2023-04-25T05:14:46.631Z,86.04
2023-04-25T05:19:38.895Z,87.71
2023-04-25T05:24:31.543Z,90.00
2023-04-25T05:29:23.216Z,89.40
2023-04-25T05:34:15.117Z,88.02
2023-04-25T05:44:38.042Z,85.89
2023-04-25T05:49:29.725Z,83.84
2023-04-25T05:54:21.396Z,82.01
2023-04-25T05:59:13.070Z,80.84
2023-04-25T06:04:12.500Z,80.46
2023-04-25T06:09:04.491Z,79.97
2023-04-25T06:13:56.175Z,81.42
2023-04-25T06:18:47.849Z,79.76
2023-04-25T06:23:39.762Z,79.58
2023-04-25T06:28:31.779Z,78.07
2023-04-25T06:38:33.031Z,72.70
2023-04-25T06:43:25.147Z,69.40
2023-04-25T06:48:17.859Z,67.77
2023-04-25T06:53:09.738Z,66.99
2023-04-25T06:58:01.508Z,65.34
2023-04-25T07:02:57.306Z,65.47
2023-04-25T07:07:49.867Z,67.79
2023-04-25T07:12:41.684Z,70.78
2023-04-25T07:17:36.129Z,73.32
2023-04-25T07:22:28.328Z,77.77
2023-04-25T07:27:21.487Z,83.07
2023-04-25T07:32:15.336Z,87.57
2023-04-25T07:37:07.547Z,94.96
2023-04-25T07:41:59.596Z,100.00
2023-04-25T07:46:51.472Z,100.00
2023-04-25T07:51:44.548Z,99.74
2023-04-25T07:56:49.260Z,99.55
2023-04-25T08:01:44.784Z,100.00
2023-04-25T08:06:37.197Z,100.00
2023-04-25T08:11:29.412Z,100.00
2023-04-25T08:16:22.171Z,100.00
2023-04-25T08:21:22.795Z,100.00
2023-04-25T08:41:24.869Z,100.00
2023-04-25T08:46:19.445Z,100.00
2023-04-25T08:51:16.796Z,100.00
2023-04-25T08:56:11.980Z,100.00
2023-04-25T09:11:23.490Z,100.00
2023-04-25T09:16:18.556Z,100.00
2023-04-25T09:21:15.962Z,100.00
2023-04-25T09:26:10.236Z,100.00
2023-04-25T09:36:37.354Z,97.51
2023-04-25T09:41:31.421Z,97.36
2023-04-25T09:46:26.069Z,95.95
2023-04-25T09:51:20.478Z,94.14
2023-04-25T09:56:15.311Z,92.16
2023-04-25T10:01:12.165Z,90.59
2023-04-25T10:06:11.398Z,86.56
2023-04-25T10:11:07.981Z,86.96
2023-04-25T10:21:08.879Z,86.18
2023-04-25T10:26:03.621Z,82.73
2023-04-25T10:31:09.915Z,82.98
2023-04-25T10:36:23.572Z,84.36
2023-04-25T10:41:16.032Z,78.70
2023-04-25T10:46:39.796Z,78.80
2023-04-25T10:51:54.309Z,78.25
2023-04-25T10:56:50.593Z,77.73
2023-04-25T11:02:14.665Z,78.61
2023-04-25T11:07:38.359Z,78.37
2023-04-25T11:12:32.850Z,79.27
2023-04-25T11:17:28.266Z,78.71
2023-04-25T11:22:22.135Z,75.97
2023-04-25T11:27:16.022Z,73.26
2023-04-25T11:32:10.736Z,72.45
2023-04-25T11:37:05.704Z,70.41
2023-04-25T11:41:57.765Z,69.32
2023-04-25T11:46:50.670Z,67.13
2023-04-25T11:56:57.397Z,64.56
2023-04-25T12:01:56.079Z,67.88
2023-04-25T12:06:51.062Z,69.99
2023-04-25T12:11:58.015Z,73.07
2023-04-25T12:21:58.429Z,87.97
2023-04-25T12:27:14.754Z,91.38
2023-04-25T12:37:14.173Z,95.66
2023-04-25T12:47:16.647Z,92.30
2023-04-25T13:02:24.482Z,83.53
2023-04-25T13:12:24.437Z,76.65
2023-04-25T13:17:17.324Z,78.15
2023-04-25T13:27:19.519Z,70.66
2023-04-25T13:32:12.264Z,68.61
2023-04-25T13:42:12.319Z,64.73
2023-04-25T13:47:05.929Z,65.08
2023-04-25T13:52:06.589Z,63.76
2023-04-25T14:07:13.897Z,59.46
2023-04-25T14:37:50.159Z,74.82
2023-04-25T14:42:43.529Z,77.63
2023-04-25T14:47:40.362Z,75.89
2023-04-25T15:02:48.712Z,68.97
2023-04-25T15:07:42.029Z,70.25
2023-04-25T15:12:34.728Z,71.30
2023-04-25T15:17:26.931Z,74.54
2023-04-25T15:37:55.486Z,63.87
2023-04-25T15:48:08.815Z,65.34
2023-04-25T15:58:11.287Z,69.28
2023-04-25T16:03:14.777Z,70.14
2023-04-25T16:08:07.576Z,71.31
2023-04-25T16:13:03.679Z,71.26
2023-04-25T16:17:55.798Z,71.04
2023-04-25T16:22:55.049Z,72.13
2023-04-25T16:27:48.739Z,78.43
2023-04-25T16:32:43.961Z,84.33
2023-04-25T16:37:38.660Z,87.65
2023-04-25T16:47:36.565Z,97.45
2023-04-25T16:52:33.497Z,100.00
2023-04-25T17:02:39.002Z,100.00
2023-04-25T17:22:54.277Z,100.00
2023-04-25T17:43:17.354Z,95.88
2023-04-25T17:48:13.447Z,95.75
2023-04-25T18:03:18.061Z,94.00
2023-04-25T18:18:34.417Z,91.00
2023-04-25T18:23:27.535Z,91.97
2023-04-25T18:28:20.818Z,92.06
2023-04-25T18:38:32.111Z,91.17
2023-04-25T18:53:50.447Z,93.00
2023-04-25T18:58:47.876Z,95.69
2023-04-25T19:13:55.446Z,96.26
2023-04-25T19:18:49.372Z,97.02
2023-04-25T19:29:22.898Z,100.00
2023-04-25T19:34:14.618Z,100.00
2023-04-25T19:39:09.415Z,100.00
2023-04-25T19:44:24.489Z,100.00
2023-04-25T19:49:23.547Z,100.00
2023-04-25T19:54:16.750Z,100.00
2023-04-25T19:59:10.893Z,100.00
2023-04-25T20:04:04.465Z,100.00
2023-04-25T20:08:57.679Z,100.00
2023-04-25T20:14:02.235Z,100.00
2023-04-25T20:18:55.106Z,100.00
2023-04-25T20:23:47.222Z,100.00
2023-04-25T20:44:00.907Z,100.00
2023-04-25T21:00:24.308Z,100.00
2023-04-25T21:11:00.492Z,100.00
2023-04-25T21:21:02.881Z,100.00
2023-04-25T21:46:49.630Z,100.00
2023-04-25T21:51:41.599Z,100.00
2023-04-25T22:01:53.725Z,100.00
2023-04-25T22:50:41.602Z,100.00
2023-04-25T23:00:58.849Z,100.00
2023-04-25T23:05:50.767Z,100.00
2023-04-25T23:10:45.596Z,100.00
2023-04-25T23:15:37.304Z,100.00
2023-04-25T23:20:29.584Z,100.00
2023-04-25T23:25:21.758Z,100.00
2023-04-25T23:30:14.323Z,100.00
2023-04-25T23:35:06.961Z,100.00
2023-04-25T23:39:58.674Z,100.00
2023-04-25T23:44:50.456Z,100.00
2023-04-25T23:49:42.130Z,100.00
2023-04-25T23:54:33.793Z,100.00
2023-04-25T23:59:25.491Z,100.00
